createdAt,value
2022-12-25T00:01:33.634Z,100162.59
2022-12-25T00:05:38.445Z,100161.13
2022-12-25T00:09:40.184Z,100150.09
2022-12-25T00:13:42.072Z,100147.38
2022-12-25T00:17:44.009Z,100152.69
2022-12-25T00:21:45.713Z,100164.53
2022-12-25T00:25:47.527Z,100169.78
2022-12-25T00:29:50.088Z,100164.31
2022-12-25T00:33:52.206Z,100157.00
2022-12-25T00:37:53.954Z,100157.25
2022-12-25T00:42:14.165Z,100166.72
2022-12-25T00:46:15.941Z,100166.47
2022-12-25T00:50:18.217Z,100164.59
2022-12-25T00:54:20.247Z,100151.78
2022-12-25T00:58:22.491Z,100152.13
2022-12-25T01:02:24.496Z,100149.44
2022-12-25T01:06:26.831Z,100155.47
2022-12-25T01:10:28.596Z,100152.66
2022-12-25T01:14:30.332Z,100159.69
2022-12-25T01:18:32.116Z,100163.84
2022-12-25T01:22:33.827Z,100165.78
2022-12-25T01:26:35.564Z,100168.63
2022-12-25T01:30:37.314Z,100166.97
2022-12-25T01:34:39.226Z,100165.22
2022-12-25T01:38:41.010Z,100202.66
2022-12-25T01:42:42.721Z,100196.06
2022-12-25T01:46:44.509Z,100213.41
2022-12-25T01:50:49.949Z,100215.88
2022-12-25T01:55:00.407Z,100201.22
2022-12-25T01:59:02.159Z,100200.59
2022-12-25T02:03:04.101Z,100214.16
2022-12-25T02:07:14.753Z,100216.13
2022-12-25T02:11:36.462Z,100216.84
2022-12-25T02:16:05.992Z,100211.31
2022-12-25T02:20:33.668Z,100212.84
2022-12-25T02:24:50.348Z,100223.34
2022-12-25T02:29:09.888Z,100224.03
2022-12-25T02:33:35.710Z,100228.72
2022-12-25T02:37:50.045Z,100224.69
2022-12-25T02:41:52.871Z,100230.84
2022-12-25T02:46:22.805Z,100224.00
2022-12-25T02:50:43.632Z,100224.78
2022-12-25T02:55:11.209Z,100231.00
2022-12-25T02:59:32.664Z,100237.78
2022-12-25T03:04:02.908Z,100235.47
2022-12-25T03:08:44.915Z,100227.16
2022-12-25T03:13:18.946Z,100230.97
2022-12-25T03:17:26.863Z,100231.41
2022-12-25T03:21:53.884Z,100230.13
2022-12-25T03:26:14.180Z,100236.69
2022-12-25T03:30:34.681Z,100234.84
2022-12-25T03:35:19.165Z,100228.75
2022-12-25T03:40:01.302Z,100228.81
2022-12-25T03:44:43.383Z,100233.19
2022-12-25T03:49:04.316Z,100239.53
2022-12-25T03:53:29.286Z,100246.06
2022-12-25T03:57:53.760Z,100252.63
2022-12-25T04:02:14.507Z,100267.44
2022-12-25T04:06:35.752Z,100268.19
2022-12-25T04:10:56.128Z,100266.28
2022-12-25T04:15:33.574Z,100283.63
2022-12-25T04:19:53.950Z,100281.66
2022-12-25T04:24:14.175Z,100279.19
2022-12-25T04:28:34.517Z,100282.19
2022-12-25T04:32:54.933Z,100273.81
2022-12-25T04:36:56.865Z,100269.22
2022-12-25T04:41:02.711Z,100261.25
2022-12-25T04:45:04.890Z,100283.00
2022-12-25T04:49:06.611Z,100278.72
2022-12-25T04:53:08.425Z,100280.91
2022-12-25T04:57:10.123Z,100288.16
2022-12-25T05:01:12.213Z,100279.56
2022-12-25T05:05:14.184Z,100301.81
2022-12-25T05:09:16.013Z,100286.56
2022-12-25T05:13:17.819Z,100308.84
2022-12-25T05:17:19.538Z,100310.72
2022-12-25T05:21:23.754Z,100295.66
2022-12-25T05:25:25.552Z,100290.25
2022-12-25T05:29:27.587Z,100298.78
2022-12-25T05:33:29.320Z,100298.03
2022-12-25T05:37:31.461Z,100288.22
2022-12-25T05:41:34.744Z,100293.19
2022-12-25T05:45:36.941Z,100292.03
2022-12-25T05:49:38.744Z,100292.44
2022-12-25T05:53:41.363Z,100294.25
2022-12-25T05:57:43.176Z,100293.81
2022-12-25T06:01:45.119Z,100302.84
2022-12-25T06:05:47.073Z,100297.41
2022-12-25T06:09:48.907Z,100296.41
2022-12-25T06:13:51.890Z,100289.78
2022-12-25T06:17:53.612Z,100290.81
2022-12-25T06:21:55.456Z,100286.28
2022-12-25T06:25:57.190Z,100279.28
2022-12-25T06:29:58.936Z,100280.66
2022-12-25T06:34:00.927Z,100264.50
2022-12-25T06:38:02.777Z,100263.31
2022-12-25T06:42:04.561Z,100273.13
2022-12-25T06:46:10.470Z,100296.63
2022-12-25T06:50:16.332Z,100297.34
2022-12-25T06:54:18.334Z,100280.34
2022-12-25T06:58:20.122Z,100289.09
2022-12-25T07:02:22.781Z,100294.72
2022-12-25T07:06:53.747Z,100292.25
2022-12-25T07:10:56.981Z,100279.06
2022-12-25T07:15:06.645Z,100288.91
2022-12-25T07:19:23.878Z,100284.06
2022-12-25T07:23:26.963Z,100305.78
2022-12-25T07:27:28.733Z,100303.38
2022-12-25T07:31:30.558Z,100328.50
2022-12-25T07:35:32.366Z,100311.94
2022-12-25T07:39:35.308Z,100306.44
2022-12-25T07:43:37.226Z,100295.78
2022-12-25T07:47:39.680Z,100303.84
2022-12-25T07:51:41.545Z,100315.47
2022-12-25T07:55:43.356Z,100321.91
2022-12-25T07:59:45.136Z,100319.47
2022-12-25T08:03:55.325Z,100326.38
2022-12-25T08:07:58.169Z,100316.34
2022-12-25T08:12:00.163Z,100333.13
2022-12-25T08:16:04.284Z,100331.72
2022-12-25T08:20:07.034Z,100318.88
2022-12-25T08:24:08.828Z,100311.06
2022-12-25T08:28:10.758Z,100313.66
2022-12-25T08:32:12.753Z,100315.56
2022-12-25T08:36:15.847Z,100324.59
2022-12-25T08:40:17.949Z,100327.53
2022-12-25T08:44:19.765Z,100294.03
2022-12-25T08:48:21.535Z,100308.28
2022-12-25T08:52:23.362Z,100291.13
2022-12-25T08:56:25.211Z,100288.44
2022-12-25T09:00:27.047Z,100274.59
2022-12-25T09:04:28.889Z,100274.38
2022-12-25T09:08:30.846Z,100278.03
2022-12-25T09:12:32.702Z,100275.97
2022-12-25T09:16:37.432Z,100274.25
2022-12-25T09:20:39.270Z,100269.28
2022-12-25T09:24:41.106Z,100264.34
2022-12-25T09:28:50.333Z,100247.75
2022-12-25T09:32:52.884Z,100227.78
2022-12-25T09:36:54.762Z,100234.56
2022-12-25T09:41:28.380Z,100225.59
2022-12-25T09:45:35.949Z,100218.56
2022-12-25T09:50:01.084Z,100226.06
2022-12-25T09:54:14.732Z,100217.97
2022-12-25T09:58:20.281Z,100213.75
2022-12-25T10:02:53.762Z,100197.91
2022-12-25T10:07:38.290Z,100216.78
2022-12-25T10:12:00.798Z,100232.03
2022-12-25T10:16:30.565Z,100221.69
2022-12-25T10:20:53.020Z,100203.94
2022-12-25T10:24:54.927Z,100197.16
2022-12-25T10:29:15.378Z,100197.53
2022-12-25T10:33:21.790Z,100188.22
2022-12-25T10:37:24.915Z,100174.00
2022-12-25T10:41:45.552Z,100173.59
2022-12-25T10:45:53.111Z,100169.59
2022-12-25T10:49:56.983Z,100179.28
2022-12-25T10:53:59.024Z,100189.06
2022-12-25T10:58:03.368Z,100158.50
2022-12-25T11:02:21.315Z,100159.09
2022-12-25T11:06:29.654Z,100156.47
2022-12-25T11:10:44.132Z,100153.47
2022-12-25T11:14:57.673Z,100161.03
2022-12-25T11:19:00.155Z,100171.88
2022-12-25T11:23:02.090Z,100164.63
2022-12-25T11:27:06.441Z,100164.13
2022-12-25T11:31:13.233Z,100145.38
2022-12-25T11:35:18.695Z,100137.53
2022-12-25T11:39:31.901Z,100107.81
2022-12-25T11:43:48.463Z,100107.09
2022-12-25T11:48:05.567Z,100084.16
2022-12-25T11:52:08.186Z,100092.63
2022-12-25T11:56:23.297Z,100071.31
2022-12-25T12:00:25.134Z,100070.66
2022-12-25T12:04:36.941Z,100045.03
2022-12-25T12:08:42.638Z,100043.03
2022-12-25T12:13:13.059Z,100035.34
2022-12-25T12:17:16.036Z,100029.16
2022-12-25T12:21:23.287Z,100016.97
2022-12-25T12:25:25.127Z,100015.88
2022-12-25T12:29:40.935Z,99997.47
2022-12-25T12:33:58.075Z,100012.19
2022-12-25T12:38:17.301Z,100011.22
2022-12-25T12:42:22.697Z,100015.19
2022-12-25T12:46:31.086Z,99991.28
2022-12-25T12:50:44.029Z,99970.38
2022-12-25T12:55:13.167Z,99987.72
2022-12-25T12:59:15.010Z,99961.06
2022-12-25T13:04:01.437Z,99939.34
2022-12-25T13:08:35.542Z,99927.13
2022-12-25T13:12:37.583Z,99923.53
2022-12-25T13:16:41.012Z,99936.63
2022-12-25T13:21:01.577Z,99959.41
2022-12-25T13:25:11.723Z,99979.78
2022-12-25T13:29:36.773Z,99967.50
2022-12-25T13:33:39.157Z,99983.31
2022-12-25T13:37:40.955Z,99979.63
2022-12-25T13:42:06.237Z,99996.22
2022-12-25T13:46:08.056Z,99991.56
2022-12-25T13:50:31.708Z,99989.22
2022-12-25T13:54:33.424Z,99981.00
2022-12-25T13:58:37.123Z,99975.94
2022-12-25T14:02:39.121Z,99976.91
2022-12-25T14:06:41.745Z,99977.16
2022-12-25T14:10:43.541Z,99985.66
2022-12-25T14:14:45.264Z,99993.22
2022-12-25T14:18:58.292Z,99963.72
2022-12-25T14:23:00.834Z,99955.19
2022-12-25T14:27:07.840Z,99948.19
2022-12-25T14:31:11.585Z,99950.41
2022-12-25T14:35:18.211Z,99947.09
2022-12-25T14:39:35.423Z,99949.97
2022-12-25T14:43:37.303Z,99953.66
2022-12-25T14:47:57.761Z,99938.84
2022-12-25T14:52:09.798Z,99938.03
2022-12-25T14:56:17.327Z,99925.81
2022-12-25T15:00:37.868Z,99924.28
2022-12-25T15:04:43.057Z,99936.06
2022-12-25T15:08:56.308Z,99942.00
2022-12-25T15:12:58.090Z,99925.66
2022-12-25T15:17:00.812Z,99919.63
2022-12-25T15:21:02.604Z,99888.78
2022-12-25T15:25:04.927Z,99902.19
2022-12-25T15:29:07.427Z,99894.66
2022-12-25T15:33:16.859Z,99878.88
2022-12-25T15:37:18.951Z,99873.81
2022-12-25T15:41:43.520Z,99865.06
2022-12-25T15:45:46.470Z,99876.00
2022-12-25T15:49:52.255Z,99869.28
2022-12-25T15:53:54.113Z,99877.25
2022-12-25T15:57:58.301Z,99863.41
2022-12-25T16:02:02.090Z,99861.06
2022-12-25T16:06:05.541Z,99867.91
2022-12-25T16:10:14.812Z,99860.78
2022-12-25T16:14:16.983Z,99830.72
2022-12-25T16:18:19.587Z,99827.41
2022-12-25T16:22:28.751Z,99827.44
2022-12-25T16:26:31.613Z,99831.69
2022-12-25T16:30:33.534Z,99836.06
2022-12-25T16:34:39.915Z,99832.78
2022-12-25T16:38:42.595Z,99839.25
2022-12-25T16:42:44.565Z,99844.59
2022-12-25T16:46:48.948Z,99853.47
2022-12-25T16:50:51.363Z,99858.91
2022-12-25T16:54:55.665Z,99842.88
2022-12-25T16:58:58.171Z,99794.19
2022-12-25T17:03:01.116Z,99819.44
2022-12-25T17:07:03.425Z,99809.19
2022-12-25T17:11:05.740Z,99790.78
2022-12-25T17:15:15.116Z,99767.91
2022-12-25T17:19:22.294Z,99770.63
2022-12-25T17:23:24.283Z,99767.78
2022-12-25T17:27:26.823Z,99746.22
2022-12-25T17:31:28.953Z,99737.47
2022-12-25T17:35:30.932Z,99726.44
2022-12-25T17:39:32.862Z,99727.78
2022-12-25T17:43:38.069Z,99717.03
2022-12-25T17:47:45.170Z,99710.69
2022-12-25T17:51:47.682Z,99689.25
2022-12-25T17:55:54.691Z,99692.84
2022-12-25T17:59:59.316Z,99685.38
2022-12-25T18:04:01.496Z,99696.72
2022-12-25T18:08:06.813Z,99680.47
2022-12-25T18:12:09.434Z,99682.13
2022-12-25T18:16:12.527Z,99674.78
2022-12-25T18:20:14.619Z,99674.13
2022-12-25T18:24:17.775Z,99674.69
2022-12-25T18:28:19.801Z,99658.25
2022-12-25T18:32:27.840Z,99662.22
2022-12-25T18:36:37.165Z,99649.97
2022-12-25T18:40:56.784Z,99655.28
2022-12-25T18:44:58.828Z,99650.06
2022-12-25T18:49:06.047Z,99641.50
2022-12-25T18:53:11.140Z,99656.44
2022-12-25T18:57:16.327Z,99657.31
2022-12-25T19:01:21.759Z,99650.22
2022-12-25T19:05:24.434Z,99653.53
2022-12-25T19:09:28.693Z,99666.97
2022-12-25T19:13:30.893Z,99669.69
2022-12-25T19:17:34.294Z,99675.28
2022-12-25T19:21:36.402Z,99661.38
2022-12-25T19:25:39.657Z,99644.81
2022-12-25T19:29:41.482Z,99630.13
2022-12-25T19:33:43.552Z,99650.63
2022-12-25T19:37:45.300Z,99637.09
2022-12-25T19:41:48.462Z,99636.25
2022-12-25T19:45:50.381Z,99638.56
2022-12-25T19:49:59.594Z,99629.56
2022-12-25T19:54:07.758Z,99629.72
2022-12-25T19:58:09.588Z,99627.22
2022-12-25T20:02:11.589Z,99612.91
2022-12-25T20:06:24.052Z,99617.78
2022-12-25T20:10:25.939Z,99604.84
2022-12-25T20:14:27.924Z,99605.56
2022-12-25T20:18:29.904Z,99593.47
2022-12-25T20:22:31.848Z,99592.03
2022-12-25T20:26:34.885Z,99600.13
2022-12-25T20:30:40.048Z,99593.13
2022-12-25T20:34:41.890Z,99606.25
2022-12-25T20:38:43.732Z,99592.84
2022-12-25T20:42:45.632Z,99606.31
2022-12-25T20:46:47.571Z,99602.22
2022-12-25T20:50:49.614Z,99596.59
2022-12-25T20:54:53.970Z,99595.94
2022-12-25T20:58:57.812Z,99593.94
2022-12-25T21:02:59.705Z,99598.50
2022-12-25T21:07:02.547Z,99583.00
2022-12-25T21:11:13.361Z,99587.59
2022-12-25T21:15:16.009Z,99596.94
2022-12-25T21:19:17.929Z,99583.22
2022-12-25T21:23:20.230Z,99582.72
2022-12-25T21:27:22.056Z,99577.38
2022-12-25T21:31:24.571Z,99577.19
2022-12-25T21:35:26.460Z,99581.41
2022-12-25T21:39:28.183Z,99577.72
2022-12-25T21:43:29.947Z,99560.59
2022-12-25T21:48:01.535Z,99562.75
2022-12-25T21:52:08.800Z,99579.00
2022-12-25T21:56:10.734Z,99584.25
2022-12-25T22:00:12.974Z,99591.28
2022-12-25T22:04:15.748Z,99577.06
2022-12-25T22:08:17.582Z,99572.47
2022-12-25T22:12:39.747Z,99581.28
2022-12-25T22:16:59.888Z,99589.44
2022-12-25T22:21:01.822Z,99585.38
2022-12-25T22:25:06.507Z,99575.47
2022-12-25T22:29:08.347Z,99569.72
2022-12-25T22:33:10.326Z,99567.66
2022-12-25T22:37:15.424Z,99562.78
2022-12-25T22:41:17.128Z,99573.72
2022-12-25T22:45:19.018Z,99577.78
2022-12-25T22:49:20.976Z,99576.91
2022-12-25T22:53:22.794Z,99564.69
2022-12-25T22:57:24.868Z,99553.75
2022-12-25T23:01:26.699Z,99567.78
2022-12-25T23:05:28.750Z,99559.69
2022-12-25T23:09:31.000Z,99591.72
2022-12-25T23:13:51.264Z,99555.41
2022-12-25T23:18:11.686Z,99552.91
2022-12-25T23:22:32.219Z,99555.75
2022-12-25T23:26:34.092Z,99576.28
2022-12-25T23:30:35.808Z,99582.19
2022-12-25T23:34:39.610Z,99578.72
2022-12-25T23:38:41.324Z,99571.06
2022-12-25T23:42:43.040Z,99569.81
2022-12-25T23:46:53.235Z,99577.19
2022-12-25T23:50:55.427Z,99589.47
2022-12-25T23:54:57.144Z,99570.19
2022-12-25T23:58:58.945Z,99553.19
